Time;durP1;ratioP1;P1;durP2;ratioP2;P2;SDS_P1;SDS_P2;PMS_P1;PMS_P2;Temp;Humidity;BMP_temperature;BMP_pressure;BME280_temperature;BME280_humidity;BME280_pressure;Samples;Min_cycle;Max_cycle;Signal;HPM_P1;HPM_P2
2023/11/27 00:00:27;;;;;;;14.32;10.48;;;;;;;5.46;100.00;100217.53;7396503;19;20363;-69
2023/11/27 00:03:06;;;;;;;14.25;11.15;;;;;;;5.43;100.00;100207.31;7395340;19;20409;-69
2023/11/27 00:05:33;;;;;;;14.40;10.82;;;;;;;5.42;100.00;100210.94;7398858;19;20325;-69
2023/11/27 00:08:00;;;;;;;12.30;10.70;;;;;;;5.42;100.00;100204.81;7398799;19;20420;-69
2023/11/27 00:10:27;;;;;;;13.00;10.80;;;;;;;5.42;100.00;100205.66;7394561;19;20368;-71
2023/11/27 00:12:58;;;;;;;14.90;10.93;;;;;;;5.40;100.00;100209.41;7397764;19;20447;-69
2023/11/27 00:15:27;;;;;;;15.03;10.90;;;;;;;5.37;100.00;100205.28;7397374;19;20328;-69
2023/11/27 00:17:54;;;;;;;13.20;9.70;;;;;;;5.36;100.00;100202.84;7397060;19;20418;-69
2023/11/27 00:20:22;;;;;;;11.70;8.40;;;;;;;5.33;100.00;100206.56;7398298;19;20417;-69
2023/11/27 00:22:49;;;;;;;9.13;7.35;;;;;;;5.26;100.00;100203.72;7398489;19;20345;-69
2023/11/27 00:25:15;;;;;;;7.80;6.80;;;;;;;5.25;100.00;100204.72;7397222;19;20848;-69
2023/11/27 00:27:43;;;;;;;6.82;5.88;;;;;;;5.20;100.00;100199.06;7396480;19;20344;-70
2023/11/27 00:30:10;;;;;;;8.52;6.50;;;;;;;5.21;100.00;100202.56;7398071;19;20352;-69
2023/11/27 00:32:37;;;;;;;7.25;5.80;;;;;;;5.18;100.00;100189.69;7397028;19;20352;-69
2023/11/27 00:35:04;;;;;;;7.70;6.27;;;;;;;5.16;100.00;100199.53;7396169;19;20643;-70
2023/11/27 00:37:31;;;;;;;7.80;5.80;;;;;;;5.14;100.00;100197.03;7395512;19;20513;-71
2023/11/27 00:39:58;;;;;;;8.68;5.80;;;;;;;5.14;100.00;100186.53;7395944;19;20364;-70
2023/11/27 00:42:25;;;;;;;6.65;4.90;;;;;;;5.16;100.00;100194.28;7396397;19;20354;-70
2023/11/27 00:44:52;;;;;;;7.90;5.28;;;;;;;5.13;100.00;100190.16;7397044;19;20361;-70
2023/11/27 00:47:19;;;;;;;6.53;4.97;;;;;;;5.10;100.00;100177.31;7395838;19;20348;-69
2023/11/27 00:49:46;;;;;;;5.80;4.63;;;;;;;5.09;100.00;100188.81;7397881;19;20419;-69
2023/11/27 00:52:14;;;;;;;6.45;4.28;;;;;;;5.06;100.00;100181.22;7393653;19;20871;-69
2023/11/27 00:54:41;;;;;;;8.05;5.03;;;;;;;5.04;100.00;100181.38;7392880;19;20365;-69
2023/11/27 00:57:08;;;;;;;6.38;4.50;;;;;;;5.04;100.00;100177.94;7394898;19;20343;-69
2023/11/27 00:59:40;;;;;;;7.82;4.50;;;;;;;5.03;100.00;100173.63;7397086;19;20940;-69
2023/11/27 01:02:07;;;;;;;6.63;4.47;;;;;;;5.03;100.00;100173.63;7395836;19;20375;-69
2023/11/27 01:04:38;;;;;;;6.95;4.20;;;;;;;5.01;100.00;100175.59;7392392;19;20416;-69
2023/11/27 01:07:05;;;;;;;6.60;4.10;;;;;;;5.01;100.00;100170.31;7394867;19;20383;-69
2023/11/27 01:09:34;;;;;;;7.20;4.28;;;;;;;5.01;100.00;100175.59;7394711;19;20363;-70
2023/11/27 01:12:01;;;;;;;6.55;4.05;;;;;;;5.00;100.00;100171.31;7396285;19;20693;-70
2023/11/27 01:14:28;;;;;;;7.00;3.85;;;;;;;5.00;100.00;100168.69;7394098;19;20397;-69
2023/11/27 01:16:56;;;;;;;7.70;4.30;;;;;;;4.99;100.00;100167.03;7394505;19;20343;-70
2023/11/27 01:19:23;;;;;;;8.57;4.63;;;;;;;5.01;100.00;100167.69;7394923;19;20430;-70
2023/11/27 01:21:52;;;;;;;8.02;4.70;;;;;;;5.03;100.00;100161.31;7394605;19;20372;-70
2023/11/27 01:24:20;;;;;;;7.93;4.77;;;;;;;5.04;100.00;100164.78;7392763;19;20430;-71
2023/11/27 01:26:47;;;;;;;7.82;4.47;;;;;;;5.03;100.00;100158.69;7395533;19;20385;-70
2023/11/27 01:29:18;;;;;;;8.55;5.00;;;;;;;5.03;100.00;100153.41;7394930;19;20353;-69
2023/11/27 01:31:45;;;;;;;8.35;5.47;;;;;;;5.04;100.00;100154.28;7392966;19;20436;-71
2023/11/27 01:34:11;;;;;;;9.63;5.90;;;;;;;5.05;100.00;100148.84;7393122;19;20340;-70
2023/11/27 01:36:39;;;;;;;9.20;5.90;;;;;;;5.02;100.00;100150.97;7395089;19;20336;-69
2023/11/27 01:39:06;;;;;;;8.98;6.20;;;;;;;5.02;100.00;100145.72;7394960;19;20386;-69
2023/11/27 01:41:33;;;;;;;8.77;5.95;;;;;;;4.99;100.00;100138.94;7395121;19;20921;-69
2023/11/27 01:44:00;;;;;;;7.05;5.22;;;;;;;4.94;100.00;100132.50;7392353;19;20711;-69
2023/11/27 01:46:27;;;;;;;10.50;5.60;;;;;;;4.95;100.00;100137.63;7392403;19;20369;-69
2023/11/27 01:48:56;;;;;;;11.20;5.67;;;;;;;4.92;100.00;100131.81;7394823;19;20368;-69
2023/11/27 01:51:25;;;;;;;8.00;5.45;;;;;;;4.90;100.00;100127.53;7393672;19;20367;-69
2023/11/27 01:53:59;;;;;;;10.98;6.32;;;;;;;4.92;100.00;100129.19;7388478;19;20357;-69
2023/11/27 01:56:28;;;;;;;10.15;5.35;;;;;;;4.88;100.00;100129.47;7390958;19;20434;-69
2023/11/27 01:58:57;;;;;;;17.50;7.18;;;;;;;4.86;100.00;100128.81;7386990;19;20356;-70
2023/11/27 02:01:26;;;;;;;9.82;4.90;;;;;;;4.88;100.00;100121.59;7393498;19;20360;-69
2023/11/27 02:03:53;;;;;;;5.65;3.50;;;;;;;4.88;100.00;100118.97;7389346;19;20702;-69
2023/11/27 02:06:20;;;;;;;5.05;3.20;;;;;;;4.86;100.00;100120.91;7393436;19;20369;-69
2023/11/27 02:08:47;;;;;;;5.68;3.30;;;;;;;4.84;100.00;100115.00;7394304;19;20404;-69
2023/11/27 02:11:18;;;;;;;6.20;3.90;;;;;;;4.87;100.00;100109.44;7392928;19;20419;-69
2023/11/27 02:13:45;;;;;;;6.97;4.38;;;;;;;4.87;100.00;100112.06;7392322;19;20761;-68
2023/11/27 02:16:13;;;;;;;7.75;4.25;;;;;;;4.88;100.00;100108.47;7394573;19;20385;-68
2023/11/27 02:18:41;;;;;;;7.75;4.95;;;;;;;4.89;100.00;100104.06;7392048;19;20374;-68
2023/11/27 02:21:10;;;;;;;7.57;4.57;;;;;;;4.88;100.00;100105.81;7392667;19;20353;-68
2023/11/27 02:23:38;;;;;;;6.93;4.53;;;;;;;4.87;100.00;100093.69;7391718;19;20675;-68
2023/11/27 02:26:06;;;;;;;7.72;5.18;;;;;;;4.89;100.00;100089.09;7391782;19;20352;-68
2023/11/27 02:28:33;;;;;;;6.47;4.50;;;;;;;4.92;100.00;100089.78;7392866;19;20332;-69
2023/11/27 02:31:00;;;;;;;7.13;4.88;;;;;;;4.93;100.00;100081.75;7392523;19;20404;-68
2023/11/27 02:33:27;;;;;;;6.07;4.80;;;;;;;4.95;100.00;100071.91;7391879;19;20385;-68
2023/11/27 02:35:54;;;;;;;6.38;4.95;;;;;;;4.97;100.00;100074.34;7391697;19;20356;-68
2023/11/27 02:38:20;;;;;;;6.57;5.85;;;;;;;4.98;100.00;100076.03;7392485;19;20365;-69
2023/11/27 02:40:47;;;;;;;7.60;5.47;;;;;;;4.96;100.00;100067.47;7391417;19;20396;-68
2023/11/27 02:43:14;;;;;;;6.80;5.57;;;;;;;4.93;100.00;100063.34;7391456;19;20386;-69
2023/11/27 02:45:42;;;;;;;7.38;5.78;;;;;;;4.94;100.00;100064.16;7394114;19;20907;-68
2023/11/27 02:48:09;;;;;;;6.65;5.47;;;;;;;4.96;100.00;100056.94;7393379;19;20755;-69
2023/11/27 02:50:36;;;;;;;7.30;6.00;;;;;;;4.98;100.00;100055.00;7392690;19;20357;-68
2023/11/27 02:53:02;;;;;;;7.70;6.20;;;;;;;4.99;100.00;100061.88;7387603;19;20784;-69
2023/11/27 02:55:32;;;;;;;7.45;6.07;;;;;;;5.01;100.00;100059.94;7388882;19;20360;-68
2023/11/27 02:57:59;;;;;;;7.43;6.55;;;;;;;5.02;100.00;100051.06;7391623;19;20434;-68
2023/11/27 03:00:26;;;;;;;8.02;6.53;;;;;;;5.00;100.00;100053.03;7391549;19;20368;-68
2023/11/27 03:02:52;;;;;;;7.57;6.50;;;;;;;4.98;100.00;100047.09;7389150;19;20448;-68
2023/11/27 03:05:19;;;;;;;7.43;6.38;;;;;;;4.97;100.00;100041.00;7391645;19;20385;-68
2023/11/27 03:07:46;;;;;;;7.72;6.72;;;;;;;4.97;100.00;100032.28;7390093;19;20408;-68
2023/11/27 03:10:13;;;;;;;7.87;7.07;;;;;;;4.96;100.00;100035.91;7392154;19;20416;-68
2023/11/27 03:12:42;;;;;;;8.60;7.47;;;;;;;4.96;100.00;100028.03;7392160;19;20708;-68
2023/11/27 03:15:09;;;;;;;8.60;7.32;;;;;;;4.93;100.00;100026.53;7388694;19;20372;-68
2023/11/27 03:17:37;;;;;;;8.70;7.78;;;;;;;4.93;100.00;100029.19;7389631;19;20383;-68
2023/11/27 03:20:10;;;;;;;10.00;8.25;;;;;;;4.92;100.00;100027.50;7392548;19;20364;-68
2023/11/27 03:22:37;;;;;;;10.75;8.25;;;;;;;4.90;100.00;100019.78;7391392;19;20351;-68
2023/11/27 03:25:04;;;;;;;10.60;8.82;;;;;;;4.88;100.00;100019.09;7388753;19;20364;-68
2023/11/27 03:27:32;;;;;;;12.88;10.27;;;;;;;4.87;100.00;100027.16;7389727;19;20360;-68
2023/11/27 03:29:59;;;;;;;13.10;10.25;;;;;;;4.85;100.00;100019.41;7391240;19;20367;-68
2023/11/27 03:32:31;;;;;;;10.93;9.73;;;;;;;4.82;100.00;100011.84;7390167;19;20340;-68
2023/11/27 03:34:59;;;;;;;12.60;10.88;;;;;;;4.83;100.00;100010.88;7389041;19;20340;-68
2023/11/27 03:37:26;;;;;;;13.90;11.82;;;;;;;4.80;100.00;100011.19;7391143;19;20747;-68
2023/11/27 03:39:53;;;;;;;14.32;12.05;;;;;;;4.84;100.00;100006.44;7385739;19;20716;-68
2023/11/27 03:42:20;;;;;;;13.75;12.32;;;;;;;4.85;100.00;100006.28;7385757;19;20344;-68
2023/11/27 03:44:47;;;;;;;14.40;12.30;;;;;;;4.87;100.00;100006.94;7387590;19;20384;-68
2023/11/27 03:47:14;;;;;;;14.40;12.00;;;;;;;4.92;100.00;100003.03;7389065;19;20699;-68
2023/11/27 03:49:41;;;;;;;13.80;11.93;;;;;;;4.89;100.00;100005.00;7390357;19;20360;-67
2023/11/27 03:52:08;;;;;;;13.15;11.85;;;;;;;4.90;100.00;100001.38;7385115;19;20328;-68
2023/11/27 03:54:35;;;;;;;13.85;12.05;;;;;;;4.93;100.00;100000.25;7386655;19;20369;-68
2023/11/27 03:57:01;;;;;;;15.82;12.90;;;;;;;4.94;100.00;99995.81;7389864;19;20371;-67
2023/11/27 03:59:28;;;;;;;13.55;12.07;;;;;;;4.96;100.00;99994.69;7391341;19;20374;-68
2023/11/27 04:01:55;;;;;;;13.15;11.63;;;;;;;4.98;100.00;99986.66;7391211;19;20324;-67
2023/11/27 04:04:22;;;;;;;15.25;12.63;;;;;;;5.00;100.00;99984.69;7390338;19;20368;-67
2023/11/27 04:06:50;;;;;;;15.50;12.63;;;;;;;4.99;100.00;99978.59;7391583;19;20356;-67
2023/11/27 04:09:20;;;;;;;14.93;12.90;;;;;;;4.98;100.00;99989.28;7389441;19;20408;-67
2023/11/27 04:11:48;;;;;;;15.32;13.43;;;;;;;4.98;100.00;99986.66;7389423;19;20691;-67
2023/11/27 04:14:15;;;;;;;16.33;14.52;;;;;;;4.99;100.00;99983.03;7391423;19;20855;-68
2023/11/27 04:16:43;;;;;;;16.50;14.15;;;;;;;4.97;100.00;99984.97;7393083;19;20357;-67
2023/11/27 04:19:10;;;;;;;17.38;15.38;;;;;;;4.97;100.00;99985.81;7397649;19;20385;-67
2023/11/27 04:21:37;;;;;;;18.57;16.20;;;;;;;4.96;100.00;99975.47;7396383;19;20376;-67
2023/11/27 04:24:04;;;;;;;19.30;17.08;;;;;;;4.93;100.00;99979.25;7395366;19;20370;-67
2023/11/27 04:26:31;;;;;;;22.92;17.92;;;;;;;4.88;100.00;99971.78;7395526;19;20363;-67
2023/11/27 04:28:59;;;;;;;19.77;17.42;;;;;;;4.86;100.00;99979.00;7395779;19;20343;-67
2023/11/27 04:31:26;;;;;;;22.57;18.33;;;;;;;4.87;100.00;99969.34;7397679;19;20336;-67
2023/11/27 04:33:53;;;;;;;21.58;17.77;;;;;;;4.86;100.00;99963.25;7397390;19;20448;-67
2023/11/27 04:36:23;;;;;;;21.17;17.75;;;;;;;4.86;100.00;99968.50;7391737;19;23581;-67
2023/11/27 04:38:50;;;;;;;21.98;18.25;;;;;;;4.84;100.00;99959.94;7395031;19;20428;-68
2023/11/27 04:41:19;;;;;;;23.77;18.55;;;;;;;4.83;100.00;99957.50;7395428;19;20919;-67
2023/11/27 04:43:46;;;;;;;22.55;17.92;;;;;;;4.83;100.00;99952.25;7396819;19;20336;-67
2023/11/27 04:46:13;;;;;;;21.67;17.73;;;;;;;4.83;100.00;99953.06;7395053;19;20344;-67
2023/11/27 04:48:40;;;;;;;20.50;17.20;;;;;;;4.86;100.00;99947.47;7396058;19;20381;-67
2023/11/27 04:51:07;;;;;;;22.38;18.10;;;;;;;4.86;100.00;99947.47;7394457;19;20355;-68
2023/11/27 04:53:34;;;;;;;21.75;17.02;;;;;;;4.87;100.00;99941.25;7397067;19;20364;-68
2023/11/27 04:56:00;;;;;;;21.02;16.92;;;;;;;4.81;100.00;99939.25;7393728;19;20440;-67
2023/11/27 04:58:27;;;;;;;21.90;16.70;;;;;;;4.84;100.00;99938.91;7396908;19;20343;-67
2023/11/27 05:00:55;;;;;;;20.40;16.08;;;;;;;4.84;100.00;99932.84;7393574;19;20375;-67
2023/11/27 05:03:22;;;;;;;23.25;17.10;;;;;;;4.83;100.00;99932.03;7393279;19;20473;-67
2023/11/27 05:05:49;;;;;;;22.50;16.20;;;;;;;4.85;100.00;99924.00;7395172;19;20495;-67
2023/11/27 05:08:16;;;;;;;19.02;15.65;;;;;;;4.84;99.99;99927.59;7393785;19;20385;-67
2023/11/27 05:10:42;;;;;;;21.98;15.63;;;;;;;4.83;100.00;99926.78;7395625;19;20357;-68
2023/11/27 05:13:11;;;;;;;22.27;15.82;;;;;;;4.81;99.91;99918.22;7394725;19;20340;-67
2023/11/27 05:15:38;;;;;;;21.15;15.18;;;;;;;4.79;100.00;99920.19;7396021;19;20368;-67
2023/11/27 05:18:05;;;;;;;23.13;16.55;;;;;;;4.80;100.00;99921.00;7395495;19;20807;-67
2023/11/27 05:20:32;;;;;;;21.83;16.25;;;;;;;4.79;99.93;99916.75;7393400;19;20848;-67
2023/11/27 05:23:01;;;;;;;20.13;15.93;;;;;;;4.80;100.00;99916.59;7393053;19;20762;-67
2023/11/27 05:25:28;;;;;;;20.83;16.75;;;;;;;4.80;99.97;99913.97;7394580;19;20750;-67
2023/11/27 05:27:55;;;;;;;21.50;17.08;;;;;;;4.80;100.00;99908.72;7389938;19;20390;-67
2023/11/27 05:30:22;;;;;;;19.50;17.00;;;;;;;4.82;100.00;99913.78;7395557;19;20392;-67
2023/11/27 05:32:50;;;;;;;22.93;17.77;;;;;;;4.82;100.00;99911.97;7392880;19;20864;-66
2023/11/27 05:35:17;;;;;;;22.88;17.95;;;;;;;4.86;100.00;99905.44;7388742;19;20368;-67
2023/11/27 05:37:44;;;;;;;24.57;18.20;;;;;;;4.88;100.00;99900.84;7389872;19;20365;-67
2023/11/27 05:40:11;;;;;;;25.08;18.42;;;;;;;4.90;100.00;99901.50;7396130;19;20368;-67
2023/11/27 05:42:39;;;;;;;27.53;19.37;;;;;;;4.93;100.00;99903.03;7394773;19;20387;-66
2023/11/27 05:45:10;;;;;;;24.73;18.60;;;;;;;4.95;100.00;99900.22;7394781;19;20353;-67
2023/11/27 05:47:41;;;;;;;25.38;19.38;;;;;;;4.97;100.00;99895.63;7393561;19;20333;-67
2023/11/27 05:50:10;;;;;;;25.58;19.00;;;;;;;4.97;100.00;99895.63;7392947;19;20361;-67
2023/11/27 05:52:36;;;;;;;25.17;18.87;;;;;;;4.99;100.00;99893.66;7392768;19;20344;-67
2023/11/27 05:55:04;;;;;;;23.50;18.60;;;;;;;5.00;100.00;99890.06;7394699;19;20357;-66
2023/11/27 05:57:30;;;;;;;25.13;19.33;;;;;;;5.02;100.00;99888.91;7395979;19;20381;-66
2023/11/27 05:59:57;;;;;;;22.95;18.90;;;;;;;5.05;100.00;99882.50;7392107;19;20344;-66
2023/11/27 06:02:24;;;;;;;25.87;19.53;;;;;;;5.04;100.00;99876.44;7393400;19;20427;-66
2023/11/27 06:04:51;;;;;;;23.10;18.63;;;;;;;5.06;100.00;99882.38;7395631;19;20360;-66
2023/11/27 06:07:21;;;;;;;25.60;19.38;;;;;;;5.06;100.00;99873.66;7395431;19;20361;-66
2023/11/27 06:09:48;;;;;;;22.48;18.50;;;;;;;5.06;100.00;99873.66;7395720;19;20353;-67
2023/11/27 06:12:14;;;;;;;23.40;17.98;;;;;;;5.05;99.83;99866.75;7395657;19;20356;-66
2023/11/27 06:14:41;;;;;;;24.45;18.27;;;;;;;5.05;99.89;99866.75;7395723;19;20433;-66
2023/11/27 06:17:08;;;;;;;21.67;18.50;;;;;;;5.08;100.00;99861.19;7391085;19;20369;-66
2023/11/27 06:19:35;;;;;;;23.00;17.23;;;;;;;5.07;99.95;99857.72;7394127;19;20375;-66
2023/11/27 06:22:02;;;;;;;22.30;17.33;;;;;;;5.05;99.77;99858.84;7395532;19;20364;-66
2023/11/27 06:24:29;;;;;;;22.80;16.95;;;;;;;5.05;99.69;99861.50;7393779;19;20368;-66
2023/11/27 06:26:56;;;;;;;19.27;15.82;;;;;;;5.06;99.60;99860.53;7394262;19;20364;-66
2023/11/27 06:29:22;;;;;;;19.40;15.35;;;;;;;5.05;99.70;99857.03;7394871;19;20868;-66
2023/11/27 06:31:49;;;;;;;22.17;15.68;;;;;;;5.06;99.52;99850.81;7394863;19;20864;-66
2023/11/27 06:34:16;;;;;;;20.77;15.70;;;;;;;5.06;99.63;99850.00;7394421;19;20357;-65
2023/11/27 06:36:43;;;;;;;18.60;16.10;;;;;;;5.05;99.44;99850.97;7392650;19;20447;-65
2023/11/27 06:39:10;;;;;;;20.77;16.00;;;;;;;5.05;99.35;99845.72;7390329;19;20336;-65
2023/11/27 06:41:37;;;;;;;19.38;15.50;;;;;;;5.05;99.49;99849.16;7393167;19;20368;-66
2023/11/27 06:44:04;;;;;;;20.98;16.10;;;;;;;5.06;99.24;99847.38;7390882;19;20364;-65
2023/11/27 06:46:31;;;;;;;18.58;15.00;;;;;;;5.05;99.26;99840.47;7390783;19;20369;-65
2023/11/27 06:48:58;;;;;;;17.50;14.70;;;;;;;5.04;99.30;99834.38;7394781;19;20423;-65
2023/11/27 06:51:25;;;;;;;17.27;14.43;;;;;;;5.04;98.99;99833.56;7390505;19;20372;-65
2023/11/27 06:53:51;;;;;;;16.20;14.43;;;;;;;5.04;99.25;99830.94;7392105;19;20336;-65
2023/11/27 06:56:18;;;;;;;18.30;14.45;;;;;;;5.03;98.93;99827.47;7393752;19;20444;-65
2023/11/27 06:58:45;;;;;;;17.33;14.02;;;;;;;5.02;98.72;99827.66;7394755;19;20365;-65
2023/11/27 07:01:12;;;;;;;16.93;13.97;;;;;;;5.01;99.01;99829.44;7392594;19;20425;-65
2023/11/27 07:03:39;;;;;;;17.20;13.40;;;;;;;4.99;98.81;99817.44;7392395;19;20460;-65
2023/11/27 07:06:07;;;;;;;16.70;13.75;;;;;;;5.02;98.83;99814.50;7393654;19;20332;-65
2023/11/27 07:08:34;;;;;;;34.00;25.90;;;;;;;5.02;99.00;99823.22;7392312;19;20385;-64
2023/11/27 07:11:02;;;;;;;16.70;13.52;;;;;;;5.02;98.68;99819.75;7392229;19;20397;-64
2023/11/27 07:13:29;;;;;;;16.25;13.57;;;;;;;5.05;98.72;99812.34;7392226;19;20359;-64
2023/11/27 07:15:56;;;;;;;15.35;13.63;;;;;;;5.09;98.75;99811.06;7388901;19;20361;-64
2023/11/27 07:18:23;;;;;;;17.98;13.75;;;;;;;5.12;98.82;99807.28;7390518;19;20855;-64
2023/11/27 07:21:00;;;;;;;16.98;13.77;;;;;;;5.17;98.58;99807.63;7392139;19;20377;-64
2023/11/27 07:23:27;;;;;;;16.77;14.43;;;;;;;5.22;98.83;99804.50;7392974;19;20360;-64
2023/11/27 07:25:56;;;;;;;66.97;45.70;;;;;;;5.23;98.61;99801.72;7392044;19;20453;-64
2023/11/27 07:28:23;;;;;;;34.20;24.60;;;;;;;5.28;98.63;99796.78;7388808;19;20352;-64
2023/11/27 07:30:50;;;;;;;33.65;23.63;;;;;;;5.31;98.76;99788.59;7392221;19;20336;-65
2023/11/27 07:33:17;;;;;;;36.90;23.30;;;;;;;5.34;98.55;99784.81;7392609;19;20340;-64
2023/11/27 07:35:43;;;;;;;32.60;20.25;;;;;;;5.37;98.52;99781.03;7391740;19;21299;-64
2023/11/27 07:38:10;;;;;;;32.90;20.55;;;;;;;5.37;98.12;99781.03;7393160;19;20360;-64
2023/11/27 07:40:37;;;;;;;32.07;20.33;;;;;;;5.39;98.26;99784.31;7390152;19;20685;-64
2023/11/27 07:43:10;;;;;;;27.23;18.10;;;;;;;5.39;98.14;99784.31;7392356;19;20371;-64
2023/11/27 07:45:38;;;;;;;27.37;17.97;;;;;;;5.39;98.11;99790.38;7389903;19;20856;-64
2023/11/27 07:48:04;;;;;;;29.10;18.90;;;;;;;5.40;98.18;99778.06;7392166;19;20349;-64
2023/11/27 07:50:31;;;;;;;34.28;20.63;;;;;;;5.39;98.04;99779.06;7394249;19;20336;-64
2023/11/27 07:52:58;;;;;;;29.17;19.17;;;;;;;5.40;98.08;99776.28;7399734;19;20352;-64
2023/11/27 07:55:25;;;;;;;27.80;19.50;;;;;;;5.40;98.03;99771.00;7398846;19;20436;-64
2023/11/27 07:57:52;;;;;;;25.02;18.70;;;;;;;5.40;97.75;99762.28;7396718;19;20369;-64
2023/11/27 08:00:19;;;;;;;20.95;16.88;;;;;;;5.40;97.70;99762.28;7398897;19;20716;-64
2023/11/27 08:02:47;;;;;;;19.10;15.02;;;;;;;5.41;97.91;99758.69;7398804;19;20365;-64
2023/11/27 08:05:18;;;;;;;16.65;14.20;;;;;;;5.41;97.83;99750.78;7396490;19;20336;-64
2023/11/27 08:07:46;;;;;;;15.68;14.07;;;;;;;5.41;97.55;99748.16;7400692;19;20706;-64
2023/11/27 08:10:15;;;;;;;15.00;12.90;;;;;;;5.40;97.53;99749.13;7399559;19;20356;-64
2023/11/27 08:12:42;;;;;;;14.13;12.73;;;;;;;5.41;97.36;99740.25;7399473;19;20367;-64
2023/11/27 08:15:18;;;;;;;14.23;12.50;;;;;;;5.41;97.68;99743.72;7399609;19;20333;-64
2023/11/27 08:17:49;;;;;;;14.07;12.10;;;;;;;5.41;97.28;99741.06;7397219;19;20356;-64
2023/11/27 08:20:17;;;;;;;13.85;12.25;;;;;;;5.43;97.39;99738.28;7397778;19;20344;-64
2023/11/27 08:22:44;;;;;;;14.82;12.43;;;;;;;5.43;97.45;99733.03;7397862;19;20352;-64
2023/11/27 08:25:14;;;;;;;13.48;12.00;;;;;;;5.45;97.31;99728.44;7398577;19;20369;-64
2023/11/27 08:27:42;;;;;;;12.25;10.93;;;;;;;5.44;97.07;99727.63;7398399;19;20367;-64
2023/11/27 08:30:10;;;;;;;12.00;10.70;;;;;;;5.46;96.93;99722.16;7399199;19;20334;-63
2023/11/27 08:32:37;;;;;;;11.02;9.88;;;;;;;5.45;97.26;99715.28;7397043;19;20361;-64
2023/11/27 08:35:05;;;;;;;11.55;10.35;;;;;;;5.45;97.27;99715.28;7396836;19;20365;-63
2023/11/27 08:37:39;;;;;;;11.05;10.00;;;;;;;5.48;97.00;99725.44;7396333;19;20351;-64
2023/11/27 08:40:09;;;;;;;12.45;10.20;;;;;;;5.47;97.11;99713.31;7398180;19;20885;-64
2023/11/27 08:42:37;;;;;;;15.13;12.95;;;;;;;5.49;96.76;99716.59;7396251;19;20891;-63
2023/11/27 08:45:10;;;;;;;11.70;10.50;;;;;;;5.50;96.99;99713.81;7399480;19;20341;-64
2023/11/27 08:47:40;;;;;;;12.93;9.95;;;;;;;5.53;97.06;99717.91;7398309;19;20435;-63
2023/11/27 08:50:07;;;;;;;12.35;9.27;;;;;;;5.54;96.58;99719.53;7397428;19;20400;-64
2023/11/27 08:52:37;;;;;;;10.68;9.63;;;;;;;5.54;96.75;99709.00;7398520;19;20375;-64
2023/11/27 08:55:05;;;;;;;10.38;9.23;;;;;;;5.57;96.81;99707.84;7396847;19;20451;-64
2023/11/27 08:57:32;;;;;;;12.95;9.07;;;;;;;5.57;96.49;99703.44;7395584;19;20874;-64
2023/11/27 09:00:12;;;;;;;9.80;8.80;;;;;;;5.59;96.48;99701.44;7397804;19;20337;-63
2023/11/27 09:02:39;;;;;;;9.63;8.60;;;;;;;5.60;96.43;99697.81;7395167;19;20722;-63
2023/11/27 09:05:06;;;;;;;10.18;8.93;;;;;;;5.63;96.63;99702.75;7397629;19;20349;-64
2023/11/27 09:07:33;;;;;;;11.02;8.38;;;;;;;5.65;96.37;99700.78;7396571;19;20879;-63
2023/11/27 09:10:02;;;;;;;9.25;8.23;;;;;;;5.67;96.35;99698.81;7397329;19;20360;-64
2023/11/27 09:12:31;;;;;;;9.67;8.03;;;;;;;5.70;95.95;99702.91;7396831;19;20349;-63
2023/11/27 09:14:58;;;;;;;10.93;7.78;;;;;;;5.70;95.65;99695.03;7396923;19;20364;-63
2023/11/27 09:17:25;;;;;;;8.88;7.70;;;;;;;5.70;95.74;99693.19;7394825;19;20364;-64
2023/11/27 09:19:52;;;;;;;9.68;7.70;;;;;;;5.70;95.54;99681.88;7397450;19;20348;-64
2023/11/27 09:22:21;;;;;;;10.70;7.28;;;;;;;5.72;95.19;99682.53;7396362;19;20424;-63
2023/11/27 09:24:48;;;;;;;10.48;7.28;;;;;;;5.72;95.23;99688.59;7396020;19;20360;-63
2023/11/27 09:27:15;;;;;;;10.02;7.10;;;;;;;5.76;95.55;99688.25;7396120;19;20359;-63
2023/11/27 09:29:42;;;;;;;8.93;7.00;;;;;;;5.79;95.31;99685.28;7396114;19;20540;-64
2023/11/27 09:32:09;;;;;;;9.02;6.82;;;;;;;5.81;95.16;99683.31;7396278;19;20431;-63
2023/11/27 09:34:36;;;;;;;11.60;6.90;;;;;;;5.82;94.81;99687.56;7394056;19;20377;-63
2023/11/27 09:37:03;;;;;;;8.55;6.68;;;;;;;5.82;94.83;99677.88;7393421;19;20369;-63
2023/11/27 09:39:31;;;;;;;10.20;6.88;;;;;;;5.83;94.92;99671.63;7391054;19;20849;-63
2023/11/27 09:41:58;;;;;;;7.97;6.40;;;;;;;5.84;94.85;99677.69;7395182;19;20438;-63
2023/11/27 09:44:26;;;;;;;8.77;6.30;;;;;;;5.84;94.56;99661.91;7394813;19;20336;-64
2023/11/27 09:46:56;;;;;;;9.73;6.90;;;;;;;5.83;94.54;99665.53;7395669;19;20367;-64
2023/11/27 09:49:24;;;;;;;11.88;7.30;;;;;;;5.84;94.79;99651.38;7391499;19;20376;-63
2023/11/27 09:51:57;;;;;;;9.60;7.68;;;;;;;5.86;94.75;99655.47;7387427;19;20697;-63
2023/11/27 09:54:32;;;;;;;12.23;9.80;;;;;;;5.83;94.55;99647.94;7394548;19;20378;-64
2023/11/27 09:56:59;;;;;;;15.48;10.45;;;;;;;5.85;94.57;99645.97;7391786;19;20721;-64
2023/11/27 09:59:29;;;;;;;15.20;10.43;;;;;;;5.87;94.75;99645.78;7393142;19;20344;-64
2023/11/27 10:01:57;;;;;;;17.33;11.48;;;;;;;5.87;94.56;99640.53;7394219;19;20325;-64
2023/11/27 10:04:25;;;;;;;15.95;11.05;;;;;;;5.85;94.14;99637.25;7393964;19;20361;-64
2023/11/27 10:06:52;;;;;;;21.20;13.43;;;;;;;5.84;94.39;99630.31;7395488;19;20702;-63
2023/11/27 10:09:21;;;;;;;19.38;12.30;;;;;;;5.82;94.40;99622.63;7393379;19;20360;-64
2023/11/27 10:11:50;;;;;;;16.87;11.93;;;;;;;5.84;94.55;99619.81;7394425;19;20344;-64
2023/11/27 10:14:19;;;;;;;10.70;8.30;;;;;;;5.82;93.97;99619.16;7392308;19;20357;-64
2023/11/27 10:16:49;;;;;;;13.88;10.65;;;;;;;5.81;94.13;99609.63;7394401;19;20700;-64
2023/11/27 10:19:19;;;;;;;13.88;9.13;;;;;;;5.78;94.26;99609.94;7394449;19;20348;-64
2023/11/27 10:21:46;;;;;;;13.63;10.67;;;;;;;5.78;94.30;99605.53;7393096;19;20848;-64
2023/11/27 10:24:16;;;;;;;12.27;9.45;;;;;;;5.75;93.93;99603.22;7394679;19;20371;-64
2023/11/27 10:26:44;;;;;;;14.13;9.77;;;;;;;5.72;93.80;99599.13;7392016;19;20357;-64
2023/11/27 10:29:11;;;;;;;13.13;9.50;;;;;;;5.70;93.89;99597.66;7394244;19;20364;-64
2023/11/27 10:31:39;;;;;;;16.58;12.02;;;;;;;5.67;94.20;99596.19;7394858;19;20411;-64
2023/11/27 10:34:07;;;;;;;14.85;11.10;;;;;;;5.66;94.14;99591.09;7391724;19;20352;-65
2023/11/27 10:36:35;;;;;;;10.80;8.43;;;;;;;5.63;93.80;99587.00;7390264;19;20340;-64
2023/11/27 10:39:05;;;;;;;10.90;7.55;;;;;;;5.61;93.48;99575.81;7390638;19;20372;-64
2023/11/27 10:41:32;;;;;;;8.45;6.80;;;;;;;5.54;93.09;99577.47;7389941;19;20864;-65
2023/11/27 10:43:59;;;;;;;8.20;6.18;;;;;;;5.48;92.69;99567.63;7388581;19;20383;-65
2023/11/27 10:46:29;;;;;;;8.48;6.10;;;;;;;5.44;92.38;99566.31;7391392;19;20448;-64
2023/11/27 10:48:59;;;;;;;6.90;5.80;;;;;;;5.40;92.34;99559.75;7393603;19;20357;-64
2023/11/27 10:51:30;;;;;;;8.00;6.17;;;;;;;5.39;93.00;99558.13;7394432;19;20411;-65
2023/11/27 10:54:01;;;;;;;7.47;5.38;;;;;;;5.32;91.94;99553.56;7390623;19;20747;-65
2023/11/27 10:56:33;;;;;;;7.57;5.20;;;;;;;5.28;91.75;99551.44;7388560;19;20377;-64
2023/11/27 10:59:09;;;;;;;8.05;5.35;;;;;;;5.24;91.85;99537.78;7387275;19;20903;-65
2023/11/27 11:01:41;;;;;;;7.93;6.00;;;;;;;5.25;92.85;99536.81;7393206;19;20348;-65
2023/11/27 11:04:35;;;;;;;7.75;5.53;;;;;;;5.25;92.85;99521.03;7392596;19;20825;-65
2023/11/27 11:07:11;;;;;;;8.57;6.25;;;;;;;5.26;93.25;99512.16;7391555;19;21290;-65
2023/11/27 11:09:38;;;;;;;7.13;5.93;;;;;;;5.25;93.35;99507.09;7390658;19;20376;-65
2023/11/27 11:12:06;;;;;;;8.35;6.32;;;;;;;5.24;93.47;99508.06;7392431;19;20352;-65
2023/11/27 11:14:33;;;;;;;9.65;6.65;;;;;;;5.23;93.42;99498.53;7391897;19;20674;-65
2023/11/27 11:17:19;;;;;;;9.32;6.90;;;;;;;5.18;93.43;99504.28;7391053;19;20364;-65
2023/11/27 11:20:15;;;;;;;78.65;55.88;;;;;;;5.18;93.73;99504.28;7390502;19;20368;-65
2023/11/27 11:23:22;;;;;;;11.32;8.20;;;;;;;5.18;93.55;99498.22;7392168;19;20344;-65
2023/11/27 11:25:50;;;;;;;12.68;8.23;;;;;;;5.14;93.78;99492.47;7395644;19;20381;-65
2023/11/27 11:28:33;;;;;;;8.70;6.50;;;;;;;5.12;93.58;99486.56;7400804;19;20709;-65